Time;durP1;ratioP1;P1;durP2;ratioP2;P2;SDS_P1;SDS_P2;PMS_P1;PMS_P2;Temp;Humidity;BMP_temperature;BMP_pressure;BME280_temperature;BME280_humidity;BME280_pressure;Samples;Min_cycle;Max_cycle;Signal;HPM_P1;HPM_P2
2020/12/20 00:01:57;;;;;;;62.78;28.30;;;;;;;3.60;75.43;101139.72;4938041;29;20130;-73
2020/12/20 00:04:23;;;;;;;63.47;26.42;;;;;;;3.65;75.39;101140.59;4938460;29;20170;-72
2020/12/20 00:06:51;;;;;;;64.18;25.83;;;;;;;3.65;75.23;101143.19;4938234;29;20063;-72
2020/12/20 00:09:19;;;;;;;53.38;27.33;;;;;;;3.63;75.46;101144.91;4940125;29;20047;-72
2020/12/20 00:11:46;;;;;;;55.22;26.95;;;;;;;3.64;75.49;101146.63;4938466;29;20055;-72
2020/12/20 00:14:30;;;;;;;57.03;26.80;;;;;;;3.65;75.35;101132.81;4937996;29;20135;-72
2020/12/20 00:16:58;;;;;;;47.70;23.75;;;;;;;3.62;75.24;101140.59;4937936;29;20559;-71
2020/12/20 00:19:24;;;;;;;62.05;25.27;;;;;;;3.60;75.44;101134.53;4938281;29;20059;-71
2020/12/20 00:21:56;;;;;;;61.05;26.48;;;;;;;3.61;75.32;101136.25;4938091;29;20052;-72
2020/12/20 00:24:23;;;;;;;57.13;27.30;;;;;;;3.62;75.21;101143.16;4937807;29;20079;-71
2020/12/20 00:26:49;;;;;;;59.97;25.65;;;;;;;3.62;75.31;101141.44;4938475;29;20097;-73
2020/12/20 00:29:16;;;;;;;61.05;27.35;;;;;;;3.64;75.39;101142.31;4938268;29;20559;-71
2020/12/20 00:31:42;;;;;;;52.25;23.38;;;;;;;3.62;75.18;101143.16;4937651;29;20503;-71
2020/12/20 00:34:09;;;;;;;59.15;26.60;;;;;;;3.63;75.34;101142.31;4938202;29;20056;-71
2020/12/20 00:36:35;;;;;;;63.00;26.70;;;;;;;3.68;75.13;101148.38;4938426;29;20058;-78
2020/12/20 00:39:02;;;;;;;56.90;26.40;;;;;;;3.68;75.13;101148.38;4937949;29;20048;-77
2020/12/20 00:41:30;;;;;;;54.83;26.55;;;;;;;3.68;75.34;101148.38;4944411;29;20055;-78
2020/12/20 00:43:56;;;;;;;63.00;26.05;;;;;;;3.71;75.28;101144.91;4949400;29;20051;-78
2020/12/20 00:46:23;;;;;;;55.67;24.83;;;;;;;3.71;75.29;101148.38;4942435;29;20158;-71
2020/12/20 00:48:49;;;;;;;59.55;24.25;;;;;;;3.66;75.27;101144.91;4937124;29;20483;-71
2020/12/20 00:51:16;;;;;;;58.88;25.25;;;;;;;3.62;75.41;101149.22;4940783;29;20083;-76
2020/12/20 00:53:42;;;;;;;58.03;24.60;;;;;;;3.65;75.36;101153.56;4941280;29;20071;-76
2020/12/20 00:56:13;;;;;;;60.70;27.02;;;;;;;3.66;75.35;101155.28;4937521;29;20048;-77
2020/12/20 00:58:39;;;;;;;62.83;27.67;;;;;;;3.67;75.25;101157.03;4939978;29;20443;-76
2020/12/20 01:01:05;;;;;;;61.40;27.50;;;;;;;3.65;75.29;101140.59;4939565;29;20055;-77
2020/12/20 01:03:32;;;;;;;62.22;26.33;;;;;;;3.66;75.26;101150.09;4938639;29;20052;-72
2020/12/20 01:05:58;;;;;;;54.30;26.27;;;;;;;3.65;75.40;101140.59;4936867;29;20440;-72
2020/12/20 01:08:24;;;;;;;60.53;25.55;;;;;;;3.64;75.37;101147.50;4937056;29;20058;-71
2020/12/20 01:10:50;;;;;;;65.30;27.58;;;;;;;3.68;75.33;101132.81;4932521;29;20586;-76
2020/12/20 01:13:16;;;;;;;57.33;26.08;;;;;;;3.68;75.40;101135.41;4929471;29;20063;-76
2020/12/20 01:15:42;;;;;;;61.53;27.55;;;;;;;3.71;75.33;101130.22;4939825;29;20051;-77
2020/12/20 01:18:10;;;;;;;59.33;27.15;;;;;;;3.73;75.36;101128.50;4940856;29;20083;-78
2020/12/20 01:20:39;;;;;;;67.07;28.70;;;;;;;3.69;75.25;101124.16;4954552;29;20065;-78
2020/12/20 01:23:05;;;;;;;60.78;26.63;;;;;;;3.68;75.42;101127.63;4966981;28;20067;-76
2020/12/20 01:25:31;;;;;;;65.57;27.13;;;;;;;3.66;75.50;101131.94;4964943;28;20067;-77
2020/12/20 01:27:57;;;;;;;62.65;26.33;;;;;;;3.66;75.67;101126.75;4956219;28;20048;-76
2020/12/20 01:30:23;;;;;;;67.90;28.15;;;;;;;3.67;75.59;101129.34;4947542;29;20099;-76
2020/12/20 01:32:49;;;;;;;59.85;28.13;;;;;;;3.67;75.37;101126.75;4938021;29;20055;-76
2020/12/20 01:35:15;;;;;;;59.15;27.30;;;;;;;3.69;75.60;101124.16;4938666;29;20536;-77
2020/12/20 01:37:42;;;;;;;53.58;23.48;;;;;;;3.66;75.34;101129.34;4937513;29;20047;-76
2020/12/20 01:40:09;;;;;;;63.70;29.23;;;;;;;3.62;75.68;101127.63;4936228;29;20117;-77
2020/12/20 01:42:35;;;;;;;68.53;28.58;;;;;;;3.66;75.37;101137.13;4938920;29;20054;-71
2020/12/20 01:45:01;;;;;;;62.22;28.10;;;;;;;3.65;75.49;101131.09;4936108;29;20051;-71
2020/12/20 01:47:32;;;;;;;63.20;26.50;;;;;;;3.63;75.58;101124.16;4936590;29;20131;-72
2020/12/20 01:49:59;;;;;;;60.72;28.90;;;;;;;3.64;75.65;101124.16;4936816;29;20044;-72
2020/12/20 01:52:26;;;;;;;67.20;27.65;;;;;;;3.67;75.46;101129.34;4936700;29;20056;-71
2020/12/20 01:54:55;;;;;;;64.45;27.42;;;;;;;3.67;75.68;101120.72;4936351;29;20048;-71
2020/12/20 01:57:21;;;;;;;62.55;29.52;;;;;;;3.70;75.26;101123.31;4936506;29;20059;-71
2020/12/20 01:59:47;;;;;;;62.35;28.90;;;;;;;3.73;75.45;101114.66;4936699;29;20058;-71
2020/12/20 02:02:13;;;;;;;63.30;29.73;;;;;;;3.72;75.47;101112.94;4936311;29;20050;-71
2020/12/20 02:04:41;;;;;;;72.50;28.63;;;;;;;3.74;75.45;101117.28;4937412;29;20106;-77
2020/12/20 02:07:07;;;;;;;62.70;28.70;;;;;;;3.75;75.43;101108.66;4935189;29;20044;-71
2020/12/20 02:09:33;;;;;;;67.07;28.20;;;;;;;3.75;75.30;101108.66;4935770;29;20488;-71
2020/12/20 02:12:04;;;;;;;63.28;27.73;;;;;;;3.72;75.56;101100.84;4935799;29;20056;-71
2020/12/20 02:14:30;;;;;;;58.65;27.85;;;;;;;3.74;75.50;101106.03;4935774;29;20192;-70
2020/12/20 02:16:56;;;;;;;62.92;28.27;;;;;;;3.75;75.64;101100.88;4936493;29;20059;-76
2020/12/20 02:19:23;;;;;;;72.60;29.13;;;;;;;3.79;75.27;101099.16;4937675;29;20048;-76
2020/12/20 02:21:50;;;;;;;60.85;27.42;;;;;;;3.79;75.27;101093.97;4937314;29;20519;-76
2020/12/20 02:24:17;;;;;;;66.90;29.15;;;;;;;3.81;75.10;101097.44;4937393;29;20499;-76
2020/12/20 02:26:43;;;;;;;59.63;27.70;;;;;;;3.83;75.06;101096.56;4936654;29;20428;-70
2020/12/20 02:29:09;;;;;;;57.22;26.75;;;;;;;3.82;75.42;101097.44;4935285;29;20059;-71
2020/12/20 02:31:36;;;;;;;59.03;27.42;;;;;;;3.82;75.39;101089.66;4935641;29;20062;-70
2020/12/20 02:34:02;;;;;;;62.90;27.10;;;;;;;3.81;75.25;101093.09;4935513;29;20052;-71
2020/12/20 02:36:29;;;;;;;63.33;27.90;;;;;;;3.78;75.52;101087.91;4935972;29;20142;-77
2020/12/20 02:38:56;;;;;;;64.80;29.00;;;;;;;3.77;75.32;101093.97;4935654;29;20090;-77
2020/12/20 02:41:22;;;;;;;59.67;28.95;;;;;;;3.76;75.56;101089.66;4936181;29;20053;-78
2020/12/20 02:43:49;;;;;;;67.18;28.52;;;;;;;3.71;75.42;101091.34;4936570;29;20059;-76
2020/12/20 02:46:16;;;;;;;74.72;31.50;;;;;;;3.69;75.74;101093.06;4937352;29;20130;-78
2020/12/20 02:48:42;;;;;;;63.78;27.63;;;;;;;3.65;75.62;101088.72;4936933;29;20060;-76
2020/12/20 02:51:11;;;;;;;63.25;28.38;;;;;;;3.66;75.62;101093.06;4936371;29;20491;-78
2020/12/20 02:53:40;;;;;;;58.97;27.33;;;;;;;3.68;75.54;101096.50;4937930;29;20043;-77
2020/12/20 02:56:07;;;;;;;64.47;26.65;;;;;;;3.66;75.65;101093.06;4937190;29;20139;-76
2020/12/20 02:58:34;;;;;;;63.17;28.27;;;;;;;3.66;75.72;101090.47;4937275;29;20056;-79
2020/12/20 03:01:00;;;;;;;75.32;28.85;;;;;;;3.66;75.83;101080.09;4937365;29;20118;-78
2020/12/20 03:03:26;;;;;;;55.75;24.30;;;;;;;3.68;75.64;101083.53;4937334;29;20047;-76
2020/12/20 03:05:52;;;;;;;61.58;26.63;;;;;;;3.67;75.61;101089.59;4937507;29;20051;-77
2020/12/20 03:08:18;;;;;;;64.90;29.50;;;;;;;3.70;75.73;101089.59;4942357;29;20514;-77
2020/12/20 03:10:44;;;;;;;61.08;27.15;;;;;;;3.73;75.74;101089.59;4943208;29;20127;-72
2020/12/20 03:13:11;;;;;;;52.58;22.95;;;;;;;3.74;75.55;101087.88;4935730;29;20047;-71
2020/12/20 03:15:41;;;;;;;55.95;27.15;;;;;;;3.69;75.75;101085.28;4936206;29;20143;-71
2020/12/20 03:18:07;;;;;;;66.53;28.60;;;;;;;3.71;75.64;101087.88;4935786;29;20061;-71
2020/12/20 03:20:33;;;;;;;65.32;27.27;;;;;;;3.69;75.67;101087.88;4938223;29;20134;-71
2020/12/20 03:23:00;;;;;;;60.45;26.17;;;;;;;3.71;75.68;101083.56;4939119;29;20063;-71
2020/12/20 03:25:26;;;;;;;69.55;29.23;;;;;;;3.74;75.81;101091.34;4942549;29;20075;-78
2020/12/20 03:27:52;;;;;;;65.97;27.85;;;;;;;3.78;75.52;101092.25;4942606;29;20052;-78
2020/12/20 03:30:19;;;;;;;70.47;29.48;;;;;;;3.75;75.49;101099.97;4941850;29;20044;-77
2020/12/20 03:32:45;;;;;;;62.63;28.42;;;;;;;3.74;75.69;101099.13;4940842;29;20062;-76
2020/12/20 03:35:11;;;;;;;67.30;26.30;;;;;;;3.75;75.69;101097.38;4940162;29;20055;-72
2020/12/20 03:37:37;;;;;;;62.83;27.25;;;;;;;3.73;75.77;101099.97;4940034;29;20048;-71
2020/12/20 03:40:05;;;;;;;63.75;25.65;;;;;;;3.74;75.61;101101.72;4939327;29;20052;-71
2020/12/20 03:42:31;;;;;;;67.95;28.00;;;;;;;3.75;75.77;101097.38;4939143;29;20087;-72
2020/12/20 03:44:57;;;;;;;68.20;29.48;;;;;;;3.77;75.56;101100.88;4939179;29;20050;-71
2020/12/20 03:47:24;;;;;;;70.63;29.02;;;;;;;3.76;75.77;101089.66;4938884;29;20070;-72
2020/12/20 03:49:50;;;;;;;74.82;31.90;;;;;;;3.77;75.63;101093.09;4938624;29;20051;-73
2020/12/20 03:52:16;;;;;;;66.78;29.33;;;;;;;3.81;75.68;101093.09;4938449;29;20052;-72
2020/12/20 03:54:42;;;;;;;68.30;29.67;;;;;;;3.86;75.52;101099.16;4938536;29;20055;-70
2020/12/20 03:57:09;;;;;;;68.05;28.33;;;;;;;3.86;75.67;101091.38;4937934;29;20048;-71
2020/12/20 03:59:39;;;;;;;64.00;25.38;;;;;;;3.88;75.44;101094.84;4938321;29;20054;-71
2020/12/20 04:02:05;;;;;;;70.68;28.60;;;;;;;3.86;75.61;101091.38;4938282;29;20054;-71
2020/12/20 04:04:32;;;;;;;70.35;29.95;;;;;;;3.86;75.54;101093.09;4937997;29;20047;-71
2020/12/20 04:06:58;;;;;;;48.80;21.33;;;;;;;3.82;75.52;101092.25;4937765;29;20058;-71
2020/12/20 04:09:24;;;;;;;77.93;29.92;;;;;;;3.77;75.76;101093.97;4938293;29;20048;-70
2020/12/20 04:11:50;;;;;;;70.43;31.23;;;;;;;3.78;75.79;101098.28;4937811;29;20106;-71
2020/12/20 04:14:16;;;;;;;72.85;27.45;;;;;;;3.83;75.59;101091.38;4937788;29;20062;-71
2020/12/20 04:16:42;;;;;;;66.78;29.08;;;;;;;3.82;75.56;101097.44;4937776;29;20054;-71
2020/12/20 04:19:08;;;;;;;69.63;27.42;;;;;;;3.81;75.53;101100.88;4937819;29;20056;-71
2020/12/20 04:21:35;;;;;;;70.80;27.58;;;;;;;3.83;75.59;101096.56;4937674;29;20449;-72
2020/12/20 04:24:01;;;;;;;67.22;28.58;;;;;;;3.85;75.61;101101.75;4937794;29;20105;-71
2020/12/20 04:26:27;;;;;;;57.17;28.00;;;;;;;3.83;75.54;101101.75;4937871;29;20047;-72
2020/12/20 04:28:53;;;;;;;63.90;27.38;;;;;;;3.81;75.59;101098.28;4937676;29;20062;-71
2020/12/20 04:31:20;;;;;;;66.03;29.42;;;;;;;3.76;75.71;101097.41;4936911;29;20419;-72
2020/12/20 04:33:46;;;;;;;72.55;30.92;;;;;;;3.73;75.69;101094.78;4937582;29;20243;-71
2020/12/20 04:36:12;;;;;;;68.95;27.98;;;;;;;3.74;75.68;101098.25;4937551;29;20047;-72
2020/12/20 04:38:39;;;;;;;64.03;28.73;;;;;;;3.75;75.84;101103.47;4937370;29;20526;-71
2020/12/20 04:41:06;;;;;;;64.03;26.85;;;;;;;3.77;75.64;101096.56;4931793;29;20052;-71
2020/12/20 04:43:32;;;;;;;64.82;28.80;;;;;;;3.80;75.44;101099.16;4922936;29;20443;-70
2020/12/20 04:45:58;;;;;;;70.25;27.77;;;;;;;3.83;75.41;101099.16;4936716;29;20436;-71
2020/12/20 04:48:34;;;;;;;64.68;27.35;;;;;;;3.83;75.48;101101.75;4936547;29;20051;-71
2020/12/20 04:51:02;;;;;;;59.95;27.52;;;;;;;3.84;75.59;101107.81;4936311;29;20430;-71
2020/12/20 04:53:30;;;;;;;62.00;29.55;;;;;;;3.87;75.60;101108.69;4936617;29;20047;-71
2020/12/20 04:56:01;;;;;;;63.97;29.58;;;;;;;3.91;75.51;101102.63;4936774;29;20054;-71
2020/12/20 04:58:27;;;;;;;57.67;25.85;;;;;;;3.88;75.42;101100.03;4937619;29;20048;-71
2020/12/20 05:00:53;;;;;;;66.80;26.33;;;;;;;3.90;75.51;101098.31;4936580;29;20058;-71
2020/12/20 05:03:20;;;;;;;73.10;28.52;;;;;;;3.90;75.36;101108.69;4937188;29;20059;-71
2020/12/20 05:05:46;;;;;;;67.93;27.45;;;;;;;3.90;75.25;101108.69;4936819;29;20134;-71
2020/12/20 05:08:14;;;;;;;72.38;28.38;;;;;;;3.88;75.40;101102.63;4936408;29;20059;-71
2020/12/20 05:10:41;;;;;;;61.42;26.42;;;;;;;3.91;75.46;101110.41;4935564;29;20056;-77
2020/12/20 05:13:08;;;;;;;67.35;27.85;;;;;;;3.89;75.39;101106.94;4934232;29;20524;-77
2020/12/20 05:15:34;;;;;;;70.65;28.77;;;;;;;3.87;75.41;101111.28;4936277;29;20476;-76
2020/12/20 05:18:04;;;;;;;66.88;27.98;;;;;;;3.87;75.41;101108.69;4936902;29;20155;-76
2020/12/20 05:20:38;;;;;;;63.83;26.77;;;;;;;3.90;75.48;101113.88;4937855;29;20082;-76
2020/12/20 05:23:05;;;;;;;62.08;27.08;;;;;;;3.94;75.28;101118.19;4937007;29;20055;-70
2020/12/20 05:25:32;;;;;;;63.17;29.70;;;;;;;3.96;75.20;101124.28;4936436;29;20459;-73
2020/12/20 05:28:11;;;;;;;62.58;24.98;;;;;;;3.95;75.18;101122.53;4936381;29;20050;-71
2020/12/20 05:30:38;;;;;;;53.53;23.77;;;;;;;3.95;75.05;101112.16;4937121;29;20459;-70
2020/12/20 05:33:04;;;;;;;64.78;30.17;;;;;;;3.92;75.20;101124.25;4936492;29;20055;-71
2020/12/20 05:35:32;;;;;;;68.88;27.48;;;;;;;3.91;75.15;101119.91;4936820;29;20048;-71
2020/12/20 05:37:58;;;;;;;62.33;27.67;;;;;;;3.90;75.17;101129.44;4935394;29;20071;-71
2020/12/20 05:40:27;;;;;;;58.88;27.23;;;;;;;3.90;75.11;101129.44;4936178;29;20499;-70
2020/12/20 05:42:55;;;;;;;67.38;27.75;;;;;;;3.91;75.27;101128.56;4935296;29;20103;-71
2020/12/20 05:45:25;;;;;;;64.43;27.55;;;;;;;3.90;75.16;101134.63;4936500;29;20048;-71
2020/12/20 05:47:52;;;;;;;50.60;21.73;;;;;;;3.91;75.29;101136.34;4936362;29;20051;-71
2020/12/20 05:50:18;;;;;;;67.57;28.30;;;;;;;3.90;75.20;101133.75;4936852;29;20832;-71
2020/12/20 05:53:06;;;;;;;66.47;27.52;;;;;;;3.93;75.35;101144.13;4936271;29;20090;-76
2020/12/20 05:55:40;;;;;;;58.17;27.92;;;;;;;4.00;75.06;101145.03;4936581;29;20488;-76
2020/12/20 05:58:11;;;;;;;60.85;24.83;;;;;;;3.98;75.02;101148.50;4935973;29;20520;-77
2020/12/20 06:00:39;;;;;;;62.83;27.65;;;;;;;3.97;75.12;101140.72;4936638;29;20122;-71
2020/12/20 06:03:06;;;;;;;62.85;26.02;;;;;;;3.98;74.95;101142.44;4935951;29;20054;-72
2020/12/20 06:05:37;;;;;;;60.38;28.95;;;;;;;3.99;75.13;101144.19;4936155;29;20447;-71
2020/12/20 06:08:05;;;;;;;52.95;27.98;;;;;;;4.01;75.02;101145.03;4935763;29;20070;-71
2020/12/20 06:10:37;;;;;;;66.38;27.42;;;;;;;4.03;75.09;101150.22;4935560;29;20067;-72
2020/12/20 06:13:06;;;;;;;63.42;26.83;;;;;;;4.05;74.90;101149.38;4935577;29;20526;-71
2020/12/20 06:15:36;;;;;;;60.40;25.83;;;;;;;4.07;74.89;101146.78;4935611;29;20043;-71
2020/12/20 06:18:12;;;;;;;58.95;25.85;;;;;;;4.07;74.91;101147.66;4936000;29;20050;-71
2020/12/20 06:20:54;;;;;;;59.97;26.80;;;;;;;4.09;74.96;101150.25;4935810;29;20047;-77
2020/12/20 06:23:23;;;;;;;57.08;23.63;;;;;;;4.12;74.84;101148.50;4935622;29;20062;-77
2020/12/20 06:25:51;;;;;;;66.50;25.52;;;;;;;4.07;74.79;101146.78;4935751;29;20480;-76
2020/12/20 06:28:20;;;;;;;66.90;27.75;;;;;;;4.02;74.88;101148.50;4935932;29;20560;-77
2020/12/20 06:30:47;;;;;;;61.35;26.90;;;;;;;4.02;75.08;101144.19;4935774;29;20048;-76
2020/12/20 06:33:37;;;;;;;55.33;25.02;;;;;;;4.06;75.04;101143.31;4935308;29;20496;-77
2020/12/20 06:36:08;;;;;;;52.40;24.70;;;;;;;4.10;74.79;101151.97;4935654;29;20047;-77
2020/12/20 06:38:34;;;;;;;58.03;25.55;;;;;;;4.10;74.61;101152.84;4935290;29;20111;-77
2020/12/20 06:41:00;;;;;;;50.25;25.75;;;;;;;4.11;74.86;101153.69;4935789;29;20122;-77
2020/12/20 06:43:31;;;;;;;51.65;23.42;;;;;;;4.08;74.87;101148.50;4935633;29;20043;-71
2020/12/20 06:45:57;;;;;;;56.08;24.67;;;;;;;4.10;74.92;101160.63;4934849;29;20553;-71
2020/12/20 06:48:35;;;;;;;51.45;23.77;;;;;;;4.10;74.93;101157.16;4935608;29;20384;-77
2020/12/20 06:51:02;;;;;;;51.28;24.38;;;;;;;4.09;74.86;101158.88;4935318;29;20079;-78
2020/12/20 06:53:52;;;;;;;55.92;26.40;;;;;;;4.09;74.84;101160.63;4935200;29;20044;-77
2020/12/20 06:56:20;;;;;;;58.47;27.13;;;;;;;4.08;74.84;101158.88;4935585;29;20054;-77
2020/12/20 06:58:47;;;;;;;54.63;25.45;;;;;;;4.07;74.82;101167.53;4935146;29;20297;-77
2020/12/20 07:01:35;;;;;;;55.25;27.15;;;;;;;4.05;74.80;101161.47;4934924;29;20138;-78
2020/12/20 07:04:03;;;;;;;55.92;24.38;;;;;;;4.06;74.75;101160.63;4935051;29;20087;-78
2020/12/20 07:06:29;;;;;;;50.15;25.73;;;;;;;4.05;74.80;101164.06;4935174;29;20051;-78
2020/12/20 07:09:07;;;;;;;60.47;26.35;;;;;;;4.05;74.83;101166.66;4935522;29;20078;-77
2020/12/20 07:11:40;;;;;;;51.97;23.73;;;;;;;4.08;74.83;101158.88;4934779;29;20526;-76
2020/12/20 07:14:17;;;;;;;56.40;24.20;;;;;;;4.11;74.65;101164.94;4934457;29;20420;-78
2020/12/20 07:16:43;;;;;;;48.88;23.05;;;;;;;4.13;74.80;101173.59;4934929;29;20056;-77
2020/12/20 07:19:10;;;;;;;49.30;23.98;;;;;;;4.14;74.83;101179.66;4935062;29;20051;-76
2020/12/20 07:21:56;;;;;;;55.35;26.40;;;;;;;4.13;74.78;101180.50;4935125;29;20135;-76
2020/12/20 07:24:23;;;;;;;46.28;22.52;;;;;;;4.16;74.71;101180.53;4934961;29;20052;-77
2020/12/20 07:26:50;;;;;;;47.45;23.33;;;;;;;4.15;74.83;101177.06;4935145;29;20488;-77
2020/12/20 07:29:18;;;;;;;54.70;24.67;;;;;;;4.13;74.83;101178.78;4934734;29;20052;-76
2020/12/20 07:31:44;;;;;;;53.88;24.40;;;;;;;4.16;74.65;101177.94;4934716;29;20070;-76
2020/12/20 07:34:12;;;;;;;53.65;23.60;;;;;;;4.13;74.66;101178.78;4934691;29;20492;-76
2020/12/20 07:36:38;;;;;;;47.97;24.23;;;;;;;4.16;74.48;101183.13;4935112;29;20087;-76
2020/12/20 07:39:06;;;;;;;53.63;25.05;;;;;;;4.14;74.75;101182.25;4934734;29;20062;-76
2020/12/20 07:41:32;;;;;;;53.40;24.13;;;;;;;4.13;74.59;101190.91;4934986;29;20130;-77
2020/12/20 07:44:03;;;;;;;53.28;23.35;;;;;;;4.13;74.67;101193.50;4934790;29;20059;-77
2020/12/20 07:46:30;;;;;;;47.38;21.50;;;;;;;4.14;74.51;101195.22;4934930;29;20051;-77
2020/12/20 07:49:01;;;;;;;49.80;25.27;;;;;;;4.12;74.67;101194.34;4934435;29;20518;-77
2020/12/20 07:51:28;;;;;;;45.72;21.95;;;;;;;4.13;74.65;101199.56;4935129;29;20062;-77
2020/12/20 07:53:56;;;;;;;53.80;25.80;;;;;;;4.11;74.66;101203.88;4934895;29;20087;-78
2020/12/20 07:56:24;;;;;;;52.55;23.33;;;;;;;4.08;74.63;101200.41;4936851;29;20055;-76
2020/12/20 07:58:51;;;;;;;55.22;26.58;;;;;;;4.06;74.76;101204.72;4938702;29;20052;-76
2020/12/20 08:01:18;;;;;;;55.78;25.40;;;;;;;4.03;75.03;101200.41;4937497;29;20052;-76
2020/12/20 08:03:44;;;;;;;53.58;25.13;;;;;;;4.05;74.88;101200.41;4935070;29;20047;-76
2020/12/20 08:06:13;;;;;;;60.20;26.48;;;;;;;4.07;74.86;101209.06;4939808;29;20052;-76
2020/12/20 08:08:41;;;;;;;59.70;27.20;;;;;;;4.06;75.02;101205.59;4942060;29;20048;-76
2020/12/20 08:11:18;;;;;;;62.08;24.67;;;;;;;4.02;75.23;101210.78;4937784;29;20039;-79
2020/12/20 08:13:52;;;;;;;61.70;25.48;;;;;;;4.03;75.14;101213.38;4927963;28;20105;-77
2020/12/20 08:16:22;;;;;;;53.92;26.13;;;;;;;4.03;75.16;101215.97;4947872;29;20044;-78
2020/12/20 08:18:57;;;;;;;56.47;24.58;;;;;;;4.05;75.28;101221.16;4937433;29;20164;-78
2020/12/20 08:21:30;;;;;;;61.35;25.17;;;;;;;4.05;75.15;101215.97;4936809;29;20135;-76
2020/12/20 08:23:59;;;;;;;55.67;27.50;;;;;;;4.01;75.56;101225.47;4936915;29;20517;-76
2020/12/20 08:26:30;;;;;;;59.67;26.35;;;;;;;3.97;75.61;101224.59;4936934;29;20058;-75
2020/12/20 08:28:57;;;;;;;56.30;26.33;;;;;;;4.01;75.60;101229.78;4937214;29;20047;-77
2020/12/20 08:31:23;;;;;;;73.50;29.42;;;;;;;4.04;75.66;101232.41;4937075;29;20048;-77
2020/12/20 08:33:49;;;;;;;67.80;28.95;;;;;;;4.06;75.70;101231.53;4937116;29;20054;-76
2020/12/20 08:36:21;;;;;;;71.18;30.33;;;;;;;4.04;75.58;101230.66;4936765;29;20131;-76
2020/12/20 08:38:47;;;;;;;58.65;25.02;;;;;;;4.09;75.77;101225.50;4938224;29;20054;-77
2020/12/20 08:41:25;;;;;;;63.80;27.58;;;;;;;4.10;75.85;101227.22;4936013;29;20052;-77
2020/12/20 08:44:05;;;;;;;58.92;28.17;;;;;;;4.11;75.57;101236.75;4937772;29;20134;-77
2020/12/20 08:46:33;;;;;;;61.20;26.70;;;;;;;4.12;75.78;101234.16;4937690;29;20055;-77
2020/12/20 08:49:16;;;;;;;56.92;23.90;;;;;;;4.08;75.81;101241.91;4937346;29;20139;-78
2020/12/20 08:51:42;;;;;;;50.38;23.38;;;;;;;4.06;76.02;101238.47;4937588;29;20058;-78
2020/12/20 08:54:11;;;;;;;66.07;26.58;;;;;;;4.06;76.00;101243.66;4937142;29;20554;-78
2020/12/20 08:56:52;;;;;;;53.38;22.27;;;;;;;4.07;75.87;101238.47;4937401;29;20095;-78
2020/12/20 08:59:32;;;;;;;66.18;26.50;;;;;;;4.09;75.98;101238.47;4937190;29;20055;-78
2020/12/20 09:01:59;;;;;;;56.92;26.60;;;;;;;4.14;75.93;101237.63;4937475;29;20056;-79
2020/12/20 09:04:30;;;;;;;69.32;27.48;;;;;;;4.15;75.93;101234.16;4937294;29;20452;-77
2020/12/20 09:07:00;;;;;;;49.13;23.50;;;;;;;4.12;76.04;101231.56;4937853;29;20102;-76
2020/12/20 09:09:27;;;;;;;52.65;22.65;;;;;;;4.05;76.25;101241.91;4936908;29;20301;-77
2020/12/20 09:11:54;;;;;;;58.42;27.17;;;;;;;4.01;76.29;101235.00;4937226;29;20491;-77
2020/12/20 09:14:20;;;;;;;52.17;23.67;;;;;;;3.98;76.32;101238.44;4936580;29;20059;-77
2020/12/20 09:16:46;;;;;;;58.03;24.10;;;;;;;3.97;76.25;101245.34;4936598;29;20043;-77
2020/12/20 09:19:13;;;;;;;51.00;25.10;;;;;;;3.96;76.33;101242.75;4936961;29;20051;-77
2020/12/20 09:21:39;;;;;;;58.42;25.95;;;;;;;3.96;76.46;101255.72;4937324;29;20046;-77
2020/12/20 09:24:05;;;;;;;59.50;25.20;;;;;;;3.94;76.38;101255.69;4936980;29;20187;-77
2020/12/20 09:26:32;;;;;;;57.72;25.77;;;;;;;3.93;76.60;101253.97;4937588;29;20052;-77
2020/12/20 09:29:06;;;;;;;61.75;25.52;;;;;;;3.94;76.55;101249.63;4936507;29;20055;-77
2020/12/20 09:31:32;;;;;;;65.30;28.13;;;;;;;3.97;76.54;101260.91;4936650;29;20062;-78
2020/12/20 09:34:01;;;;;;;61.97;25.88;;;;;;;3.95;76.55;101256.56;4936165;29;20492;-78
2020/12/20 09:36:27;;;;;;;56.70;24.85;;;;;;;3.95;76.64;101257.41;4936842;29;20044;-77
2020/12/20 09:38:55;;;;;;;51.40;22.70;;;;;;;3.97;76.47;101250.53;4936300;29;20051;-76
2020/12/20 09:41:22;;;;;;;56.28;25.08;;;;;;;3.94;76.38;101247.91;4936593;29;20064;-77
2020/12/20 09:43:50;;;;;;;59.63;24.90;;;;;;;3.92;76.55;101244.44;4936447;29;20074;-77
2020/12/20 09:46:21;;;;;;;54.30;24.70;;;;;;;3.93;76.47;101247.91;4936417;29;20056;-77
2020/12/20 09:48:48;;;;;;;55.53;26.38;;;;;;;3.92;76.73;101235.78;4936181;29;20055;-77
2020/12/20 09:51:14;;;;;;;60.58;28.30;;;;;;;3.91;76.64;101241.84;4936199;29;20502;-78
2020/12/20 09:53:40;;;;;;;58.55;23.45;;;;;;;3.90;76.58;101238.38;4936171;29;20061;-78
2020/12/20 09:56:06;;;;;;;57.85;25.30;;;;;;;3.91;76.64;101237.53;4936070;29;20095;-78
2020/12/20 09:58:33;;;;;;;50.85;24.23;;;;;;;3.91;76.85;101244.44;4934467;29;20134;-77
2020/12/20 10:00:59;;;;;;;58.13;27.80;;;;;;;3.95;76.83;101235.81;4935391;29;20143;-78
2020/12/20 10:03:27;;;;;;;65.07;25.98;;;;;;;4.01;76.89;101241.03;4935625;29;20459;-77
2020/12/20 10:05:56;;;;;;;55.53;25.23;;;;;;;4.00;76.74;101234.13;4935901;29;20058;-78
2020/12/20 10:08:22;;;;;;;53.63;23.45;;;;;;;3.95;76.76;101228.88;4935738;29;20048;-78
2020/12/20 10:10:50;;;;;;;64.05;26.27;;;;;;;3.96;76.87;101230.66;4936095;29;20051;-77
2020/12/20 10:13:17;;;;;;;57.35;24.48;;;;;;;3.98;76.81;101235.84;4935581;29;20062;-77
2020/12/20 10:15:43;;;;;;;63.55;25.30;;;;;;;4.02;76.88;101229.81;4933681;29;20522;-77
2020/12/20 10:18:09;;;;;;;54.83;24.65;;;;;;;4.05;76.73;101235.00;4923776;29;20206;-77
2020/12/20 10:20:36;;;;;;;54.85;24.42;;;;;;;4.07;76.73;101230.69;4930191;29;20265;-76
2020/12/20 10:23:03;;;;;;;49.88;25.67;;;;;;;4.10;76.67;101229.81;4934782;29;20071;-77
2020/12/20 10:25:29;;;;;;;54.78;24.00;;;;;;;4.16;76.63;101229.84;4934749;29;20055;-75
2020/12/20 10:27:56;;;;;;;49.55;23.00;;;;;;;4.20;76.69;101231.59;4934587;29;20106;-77
2020/12/20 10:30:23;;;;;;;57.50;23.02;;;;;;;4.20;76.44;101235.06;4934848;29;20059;-76
2020/12/20 10:32:49;;;;;;;43.40;21.52;;;;;;;4.20;76.71;101232.47;4935063;29;20073;-77
2020/12/20 10:35:16;;;;;;;50.92;24.42;;;;;;;4.22;76.66;101227.28;4935213;29;20059;-77
2020/12/20 10:37:43;;;;;;;53.50;24.30;;;;;;;4.24;76.49;101228.16;4937400;29;20542;-77
2020/12/20 10:40:09;;;;;;;49.78;23.85;;;;;;;4.29;76.54;101226.44;4936046;29;20417;-77
2020/12/20 10:42:36;;;;;;;50.80;23.10;;;;;;;4.33;76.40;101227.28;4935117;29;20539;-77
2020/12/20 10:45:02;;;;;;;46.90;22.33;;;;;;;4.33;76.37;101216.91;4934939;29;20512;-77
2020/12/20 10:47:28;;;;;;;52.50;24.70;;;;;;;4.34;76.51;101224.69;4934641;29;20052;-74
2020/12/20 10:49:54;;;;;;;41.90;20.17;;;;;;;4.34;76.21;101218.66;4934516;29;20051;-73
2020/12/20 10:52:20;;;;;;;45.78;22.08;;;;;;;4.34;76.09;101223.84;4934365;29;20055;-74
2020/12/20 10:54:47;;;;;;;47.10;23.60;;;;;;;4.41;76.25;101228.19;4934449;29;20495;-74
2020/12/20 10:57:14;;;;;;;48.97;22.27;;;;;;;4.48;75.80;101227.34;4934425;29;20051;-72
2020/12/20 10:59:40;;;;;;;43.15;22.10;;;;;;;4.47;75.83;101226.47;4934373;29;20463;-73
2020/12/20 11:02:06;;;;;;;46.97;20.40;;;;;;;4.47;75.54;101230.81;4934024;29;20087;-74
2020/12/20 11:04:32;;;;;;;49.90;24.65;;;;;;;4.45;75.61;101217.81;4932832;29;20555;-74
2020/12/20 11:06:59;;;;;;;45.30;22.38;;;;;;;4.45;75.55;101216.94;4933029;29;20079;-74
2020/12/20 11:09:26;;;;;;;50.63;24.17;;;;;;;4.49;75.48;101211.75;4934045;29;20492;-74
2020/12/20 11:11:54;;;;;;;43.85;19.13;;;;;;;4.53;75.34;101216.09;4933452;29;20492;-74
2020/12/20 11:14:21;;;;;;;33.75;15.23;;;;;;;4.58;75.30;101205.69;4933810;29;20051;-74
2020/12/20 11:16:49;;;;;;;44.38;19.98;;;;;;;4.56;75.21;101210.03;4934547;29;20048;-75
2020/12/20 11:19:15;;;;;;;42.90;19.25;;;;;;;4.58;75.20;101211.78;4934896;29;20069;-75
2020/12/20 11:21:41;;;;;;;41.63;20.15;;;;;;;4.58;75.24;101216.09;4935233;29;20052;-74